createdAt,value
2022-12-14T00:00:05.150Z,0
2022-12-14T00:01:05.450Z,0
2022-12-14T00:02:05.287Z,0
2022-12-14T00:03:05.869Z,0
2022-12-14T00:04:05.134Z,0
2022-12-14T00:05:05.147Z,0
2022-12-14T00:06:05.148Z,0
2022-12-14T00:07:07.962Z,0
2022-12-14T00:08:05.204Z,0
2022-12-14T00:09:05.194Z,0
2022-12-14T00:10:05.146Z,0
2022-12-14T00:11:05.212Z,0
2022-12-14T00:12:08.165Z,0
2022-12-14T00:13:05.198Z,0
2022-12-14T00:14:05.195Z,0
2022-12-14T00:15:05.264Z,0
2022-12-14T00:16:05.591Z,0
2022-12-14T00:17:05.154Z,0
2022-12-14T00:18:05.248Z,0
2022-12-14T00:19:05.158Z,0
2022-12-14T00:20:05.173Z,0
2022-12-14T00:21:05.198Z,0
2022-12-14T00:22:05.183Z,0
2022-12-14T00:23:08.311Z,0
2022-12-14T00:24:05.192Z,0
2022-12-14T00:25:05.175Z,0
2022-12-14T00:26:05.153Z,0
2022-12-14T00:27:05.185Z,0
2022-12-14T00:28:05.720Z,0
2022-12-14T00:29:05.206Z,0
2022-12-14T00:30:05.238Z,0
2022-12-14T00:31:05.856Z,0
2022-12-14T00:32:05.164Z,0
2022-12-14T00:33:05.201Z,0
2022-12-14T00:34:09.321Z,0
2022-12-14T00:35:05.331Z,0
2022-12-14T00:36:05.219Z,0
2022-12-14T00:37:05.184Z,0
2022-12-14T00:38:05.216Z,0
2022-12-14T00:39:05.314Z,0
2022-12-14T00:40:05.195Z,0
2022-12-14T00:41:05.191Z,0
2022-12-14T00:42:08.368Z,0
2022-12-14T00:43:05.245Z,0
2022-12-14T00:44:05.206Z,0
2022-12-14T00:45:08.016Z,0
2022-12-14T00:46:05.652Z,0
2022-12-14T00:47:05.220Z,0
2022-12-14T00:48:05.228Z,0
2022-12-14T00:49:05.196Z,0
2022-12-14T00:50:08.286Z,0
2022-12-14T00:51:05.255Z,0
2022-12-14T00:52:05.227Z,0
2022-12-14T00:53:05.221Z,0
2022-12-14T00:54:05.249Z,0
2022-12-14T00:55:05.269Z,0
2022-12-14T00:56:08.220Z,0
2022-12-14T00:57:05.233Z,0
2022-12-14T00:58:05.266Z,0
2022-12-14T00:59:05.274Z,0
2022-12-14T01:00:05.237Z,0
2022-12-14T01:01:08.347Z,0
2022-12-14T01:02:05.915Z,0
2022-12-14T01:03:05.262Z,0
2022-12-14T01:04:05.480Z,0
2022-12-14T01:05:05.235Z,0
2022-12-14T01:06:05.271Z,0
2022-12-14T01:07:08.133Z,0
2022-12-14T01:08:05.249Z,0
2022-12-14T01:09:05.248Z,0
2022-12-14T01:10:05.241Z,0
2022-12-14T01:11:05.292Z,0
2022-12-14T01:12:08.427Z,0
2022-12-14T01:13:05.267Z,0
2022-12-14T01:14:05.249Z,0
2022-12-14T01:15:05.226Z,0
2022-12-14T01:16:08.433Z,0
2022-12-14T01:17:05.262Z,0
2022-12-14T01:18:08.409Z,0
2022-12-14T01:19:05.461Z,0
2022-12-14T01:20:06.277Z,0
2022-12-14T01:21:05.263Z,0
2022-12-14T01:22:05.260Z,0
2022-12-14T01:23:08.337Z,0
2022-12-14T01:24:05.283Z,0
2022-12-14T01:25:05.267Z,0
2022-12-14T01:26:05.263Z,0
2022-12-14T01:27:05.317Z,0
2022-12-14T01:28:05.311Z,0
2022-12-14T01:29:08.282Z,0
2022-12-14T01:30:05.275Z,0
2022-12-14T01:31:05.583Z,0
2022-12-14T01:32:05.307Z,0
2022-12-14T01:33:05.324Z,0
2022-12-14T01:34:08.333Z,0
2022-12-14T01:35:05.270Z,0
2022-12-14T01:36:05.287Z,0
2022-12-14T01:37:05.291Z,0
2022-12-14T01:38:05.694Z,0
2022-12-14T01:39:05.297Z,0
2022-12-14T01:40:08.143Z,0
2022-12-14T01:41:05.318Z,0
2022-12-14T01:42:05.275Z,0
2022-12-14T01:43:05.322Z,0
2022-12-14T01:44:05.278Z,0
2022-12-14T01:45:08.330Z,0
2022-12-14T01:46:05.532Z,0
2022-12-14T01:47:12.741Z,0
2022-12-14T01:48:05.357Z,0
2022-12-14T01:49:05.344Z,0
2022-12-14T01:50:05.331Z,0
2022-12-14T01:51:08.356Z,0
2022-12-14T01:52:05.307Z,0
2022-12-14T01:53:05.285Z,0
2022-12-14T01:54:05.322Z,0
2022-12-14T01:55:05.300Z,0
2022-12-14T01:56:08.350Z,0
2022-12-14T01:57:05.315Z,0
2022-12-14T01:58:05.327Z,0
2022-12-14T01:59:05.441Z,0
2022-12-14T02:00:12.358Z,0
2022-12-14T02:01:05.322Z,0
2022-12-14T02:02:05.818Z,0
2022-12-14T02:03:05.910Z,0
2022-12-14T02:04:05.323Z,0
2022-12-14T02:05:05.383Z,0
2022-12-14T02:06:05.352Z,0
2022-12-14T02:07:09.227Z,0
2022-12-14T02:08:05.321Z,0
2022-12-14T02:09:05.327Z,0
2022-12-14T02:10:05.348Z,0
2022-12-14T02:11:05.331Z,0
2022-12-14T02:12:05.304Z,0
2022-12-14T02:13:05.328Z,0
2022-12-14T02:14:05.335Z,0
2022-12-14T02:15:05.364Z,0
2022-12-14T02:16:05.587Z,0
2022-12-14T02:17:05.339Z,0
2022-12-14T02:18:05.346Z,0
2022-12-14T02:19:05.331Z,0
2022-12-14T02:20:05.346Z,0
2022-12-14T02:21:05.507Z,0
2022-12-14T02:22:05.418Z,0
2022-12-14T02:23:08.393Z,0
2022-12-14T02:24:05.357Z,0
2022-12-14T02:25:05.394Z,0
2022-12-14T02:26:05.411Z,0
2022-12-14T02:27:05.393Z,0
2022-12-14T02:28:05.363Z,0
2022-12-14T02:29:05.390Z,0
2022-12-14T02:30:05.390Z,0
2022-12-14T02:31:05.647Z,0
2022-12-14T02:32:05.359Z,0
2022-12-14T02:33:05.347Z,0
2022-12-14T02:34:08.515Z,0
2022-12-14T02:35:05.374Z,0
2022-12-14T02:36:05.417Z,0
2022-12-14T02:37:05.560Z,0
2022-12-14T02:38:05.393Z,0
2022-12-14T02:39:08.638Z,0
2022-12-14T02:40:05.390Z,0
2022-12-14T02:41:05.382Z,0
2022-12-14T02:42:05.410Z,0
2022-12-14T02:43:05.397Z,0
2022-12-14T02:44:05.443Z,0
2022-12-14T02:45:05.379Z,0
2022-12-14T02:46:05.388Z,0
2022-12-14T02:47:05.757Z,0
2022-12-14T02:48:05.402Z,0
2022-12-14T02:49:05.408Z,0
2022-12-14T02:50:05.633Z,0
2022-12-14T02:51:05.462Z,0
2022-12-14T02:52:05.389Z,0
2022-12-14T02:53:05.423Z,0
2022-12-14T02:54:05.450Z,0
2022-12-14T02:55:05.400Z,0
2022-12-14T02:56:05.405Z,0
2022-12-14T02:57:05.448Z,0
2022-12-14T02:58:05.436Z,0
2022-12-14T02:59:05.477Z,0
2022-12-14T03:00:05.404Z,0
2022-12-14T03:01:08.603Z,0
2022-12-14T03:02:06.334Z,0
2022-12-14T03:03:05.845Z,0
2022-12-14T03:04:05.441Z,0
2022-12-14T03:05:05.675Z,0
2022-12-14T03:06:05.410Z,0
2022-12-14T03:07:05.437Z,0
2022-12-14T03:08:05.430Z,0
2022-12-14T03:09:05.479Z,0
2022-12-14T03:10:05.453Z,0
2022-12-14T03:11:05.459Z,0
2022-12-14T03:12:08.551Z,0
2022-12-14T03:13:05.430Z,0
2022-12-14T03:14:05.465Z,0
2022-12-14T03:15:05.472Z,0
2022-12-14T03:16:05.662Z,0
2022-12-14T03:17:08.617Z,0
2022-12-14T03:18:05.445Z,0
2022-12-14T03:19:05.499Z,0
2022-12-14T03:20:05.456Z,0
2022-12-14T03:21:05.456Z,0
2022-12-14T03:22:05.530Z,0
2022-12-14T03:23:08.300Z,0
2022-12-14T03:24:05.490Z,0
2022-12-14T03:25:05.504Z,0
2022-12-14T03:26:05.459Z,0
2022-12-14T03:27:05.466Z,0
2022-12-14T03:28:08.566Z,0
2022-12-14T03:29:05.501Z,0
2022-12-14T03:30:05.496Z,0
2022-12-14T03:31:07.605Z,0
2022-12-14T03:32:05.625Z,0
2022-12-14T03:33:05.453Z,0
2022-12-14T03:34:15.607Z,0
2022-12-14T03:35:05.465Z,0
2022-12-14T03:36:05.452Z,0
2022-12-14T03:37:06.513Z,0
2022-12-14T03:38:05.457Z,0
2022-12-14T03:39:07.436Z,0
2022-12-14T03:40:05.469Z,0
2022-12-14T03:41:05.482Z,0
2022-12-14T03:42:05.495Z,0
2022-12-14T03:43:05.460Z,0
2022-12-14T03:44:05.512Z,0
2022-12-14T03:45:08.501Z,0
2022-12-14T03:46:05.707Z,0
2022-12-14T03:47:05.533Z,0
2022-12-14T03:48:05.493Z,0
2022-12-14T03:49:05.515Z,0
2022-12-14T03:50:08.584Z,0
2022-12-14T03:51:05.484Z,0
2022-12-14T03:52:05.480Z,0
2022-12-14T03:53:05.541Z,0
2022-12-14T03:54:06.072Z,0
2022-12-14T03:55:05.546Z,0
2022-12-14T03:56:14.546Z,0
2022-12-14T03:57:05.519Z,0
2022-12-14T03:58:05.516Z,0
2022-12-14T03:59:05.528Z,0
2022-12-14T04:00:06.559Z,0
2022-12-14T04:01:08.724Z,0
2022-12-14T04:02:09.169Z,0
2022-12-14T04:03:05.852Z,0
2022-12-14T04:04:05.527Z,0
2022-12-14T04:05:05.508Z,0
2022-12-14T04:06:05.539Z,0
2022-12-14T04:07:08.502Z,0
2022-12-14T04:08:05.503Z,0
2022-12-14T04:09:05.866Z,0
2022-12-14T04:10:05.509Z,0
2022-12-14T04:11:05.572Z,0
2022-12-14T04:12:08.599Z,0
2022-12-14T04:13:05.538Z,0
2022-12-14T04:14:05.565Z,0
2022-12-14T04:15:05.548Z,0
2022-12-14T04:16:05.577Z,0
2022-12-14T04:17:05.563Z,0
2022-12-14T04:18:08.545Z,0
2022-12-14T04:19:07.135Z,0
2022-12-14T04:20:05.542Z,0
2022-12-14T04:21:05.557Z,0
2022-12-14T04:22:05.547Z,0
2022-12-14T04:23:08.517Z,0
2022-12-14T04:24:05.569Z,0
2022-12-14T04:25:05.538Z,0
2022-12-14T04:26:05.521Z,0
2022-12-14T04:27:05.538Z,0
2022-12-14T04:28:05.554Z,0
2022-12-14T04:29:05.593Z,0
2022-12-14T04:30:06.607Z,0
2022-12-14T04:31:05.580Z,0
2022-12-14T04:32:06.072Z,0
2022-12-14T04:33:05.694Z,0
2022-12-14T04:34:08.643Z,0
2022-12-14T04:35:05.550Z,0
2022-12-14T04:36:05.565Z,0
2022-12-14T04:37:05.546Z,0
2022-12-14T04:38:08.564Z,0
2022-12-14T04:39:05.565Z,0
2022-12-14T04:40:05.574Z,0
2022-12-14T04:41:05.575Z,0
2022-12-14T04:42:05.580Z,0
2022-12-14T04:43:05.572Z,0
2022-12-14T04:44:05.585Z,0
2022-12-14T04:45:05.654Z,0
2022-12-14T04:46:05.988Z,0
2022-12-14T04:47:05.563Z,0
2022-12-14T04:48:05.572Z,0
2022-12-14T04:49:05.604Z,0
2022-12-14T04:50:08.358Z,0
2022-12-14T04:51:05.565Z,0
2022-12-14T04:52:12.089Z,0
2022-12-14T04:53:05.570Z,0
2022-12-14T04:54:05.638Z,0
2022-12-14T04:55:05.611Z,0
2022-12-14T04:56:05.589Z,0
2022-12-14T04:57:05.588Z,0
2022-12-14T04:58:05.619Z,0
2022-12-14T04:59:05.615Z,0
2022-12-14T05:00:05.605Z,0
2022-12-14T05:01:09.076Z,0
2022-12-14T05:02:06.707Z,0
2022-12-14T05:03:05.930Z,0
2022-12-14T05:04:12.653Z,0
2022-12-14T05:05:05.617Z,0
2022-12-14T05:06:08.601Z,0
2022-12-14T05:07:05.585Z,0
2022-12-14T05:08:05.614Z,0
2022-12-14T05:09:05.665Z,0
2022-12-14T05:10:05.677Z,0
2022-12-14T05:11:58.064Z,0
2022-12-14T05:12:10.419Z,0
2022-12-14T05:13:07.563Z,0
2022-12-14T05:14:07.574Z,0
2022-12-14T05:15:07.604Z,0
2022-12-14T05:16:07.576Z,0
2022-12-14T05:17:15.710Z,0
2022-12-14T05:18:07.580Z,0
2022-12-14T05:19:07.588Z,0
2022-12-14T05:20:07.608Z,0
2022-12-14T05:21:07.574Z,0
2022-12-14T05:22:07.585Z,0
2022-12-14T05:23:10.598Z,0
2022-12-14T05:24:07.579Z,0
2022-12-14T05:25:07.614Z,0
2022-12-14T05:26:07.622Z,0
2022-12-14T05:27:07.614Z,0
2022-12-14T05:28:10.622Z,0
2022-12-14T05:29:07.596Z,0
2022-12-14T05:30:07.638Z,0
2022-12-14T05:31:07.822Z,0
2022-12-14T05:32:07.593Z,0
2022-12-14T05:33:07.678Z,0
2022-12-14T05:34:10.612Z,0
2022-12-14T05:35:07.594Z,0
2022-12-14T05:36:07.650Z,0
2022-12-14T05:37:18.360Z,0
2022-12-14T05:38:07.591Z,0
2022-12-14T05:39:10.539Z,0
2022-12-14T05:40:07.640Z,0
2022-12-14T05:41:07.612Z,0
2022-12-14T05:42:07.710Z,0
2022-12-14T05:43:07.642Z,0
2022-12-14T05:44:07.594Z,0
2022-12-14T05:45:07.703Z,0
2022-12-14T05:46:07.920Z,0
2022-12-14T05:47:07.625Z,0
2022-12-14T05:48:07.441Z,0
2022-12-14T05:49:07.735Z,0
2022-12-14T05:50:10.711Z,0
2022-12-14T05:51:07.671Z,0
2022-12-14T05:52:07.644Z,0
2022-12-14T05:53:07.620Z,0
2022-12-14T05:54:07.636Z,0
2022-12-14T05:55:11.361Z,0
2022-12-14T05:56:07.484Z,0
2022-12-14T05:57:07.656Z,0
2022-12-14T05:58:07.653Z,0
2022-12-14T05:59:07.665Z,0
2022-12-14T06:00:07.675Z,0
2022-12-14T06:01:18.973Z,0
2022-12-14T06:02:08.528Z,0
2022-12-14T06:03:07.890Z,0
2022-12-14T06:04:07.877Z,0
2022-12-14T06:05:10.777Z,0
2022-12-14T06:06:07.649Z,0
2022-12-14T06:07:07.644Z,0
2022-12-14T06:08:07.663Z,0
2022-12-14T06:09:07.641Z,0
2022-12-14T06:10:07.500Z,0
2022-12-14T06:11:07.656Z,0
2022-12-14T06:12:10.477Z,0
2022-12-14T06:13:07.644Z,0
2022-12-14T06:14:07.698Z,0
2022-12-14T06:15:08.512Z,0
2022-12-14T06:16:07.797Z,0
2022-12-14T06:17:07.668Z,0
2022-12-14T06:18:07.658Z,0
2022-12-14T06:19:07.692Z,0
2022-12-14T06:20:07.692Z,0
2022-12-14T06:21:07.795Z,0
2022-12-14T06:22:07.683Z,0
2022-12-14T06:23:10.690Z,0
2022-12-14T06:24:11.140Z,0
2022-12-14T06:25:07.759Z,0
2022-12-14T06:26:07.672Z,0
2022-12-14T06:27:07.690Z,0
2022-12-14T06:28:10.680Z,0
2022-12-14T06:29:07.670Z,0
2022-12-14T06:30:07.715Z,0
2022-12-14T06:31:07.925Z,0
2022-12-14T06:32:07.694Z,0
2022-12-14T06:33:07.671Z,0
2022-12-14T06:34:10.870Z,0
2022-12-14T06:35:07.716Z,0
2022-12-14T06:36:07.718Z,0
2022-12-14T06:37:07.735Z,0
2022-12-14T06:38:07.691Z,0
2022-12-14T06:39:10.784Z,0
2022-12-14T06:40:07.732Z,0
2022-12-14T06:41:07.696Z,0
2022-12-14T06:42:07.688Z,0
2022-12-14T06:43:07.706Z,0
2022-12-14T06:44:07.594Z,0
2022-12-14T06:45:10.612Z,0
2022-12-14T06:46:15.664Z,0
2022-12-14T06:47:07.764Z,0
2022-12-14T06:48:07.698Z,4
2022-12-14T06:49:07.535Z,4
2022-12-14T06:50:09.487Z,4
2022-12-14T06:51:07.707Z,0
2022-12-14T06:52:08.772Z,0
2022-12-14T06:53:07.797Z,0
2022-12-14T06:54:07.831Z,0
2022-12-14T06:55:07.755Z,0
2022-12-14T06:56:07.761Z,4
2022-12-14T06:57:07.733Z,4
2022-12-14T06:58:07.699Z,4
2022-12-14T06:59:07.926Z,0
2022-12-14T07:00:07.761Z,0
2022-12-14T07:01:11.331Z,4
2022-12-14T07:02:08.431Z,4
2022-12-14T07:03:08.501Z,4
2022-12-14T07:04:07.739Z,4
2022-12-14T07:05:07.759Z,4
2022-12-14T07:06:07.734Z,4
2022-12-14T07:07:07.728Z,4
2022-12-14T07:08:07.746Z,4
2022-12-14T07:09:08.864Z,4
2022-12-14T07:10:07.793Z,4
2022-12-14T07:11:09.571Z,4
2022-12-14T07:12:07.769Z,4
2022-12-14T07:13:07.772Z,8
2022-12-14T07:14:07.753Z,4
2022-12-14T07:15:07.768Z,8
2022-12-14T07:16:08.147Z,8
2022-12-14T07:17:10.890Z,8
2022-12-14T07:18:07.752Z,8
2022-12-14T07:19:07.744Z,8
2022-12-14T07:20:07.780Z,8
2022-12-14T07:21:07.753Z,8
2022-12-14T07:22:07.759Z,12
2022-12-14T07:23:07.768Z,12
2022-12-14T07:24:07.760Z,12
2022-12-14T07:25:07.832Z,12
2022-12-14T07:26:07.772Z,12
2022-12-14T07:27:08.004Z,12
2022-12-14T07:28:10.881Z,12
2022-12-14T07:29:07.766Z,16
2022-12-14T07:30:07.823Z,20
2022-12-14T07:31:08.258Z,16
2022-12-14T07:32:07.793Z,20
2022-12-14T07:33:10.607Z,20
2022-12-14T07:34:07.603Z,20
2022-12-14T07:35:10.449Z,28
2022-12-14T07:36:07.760Z,28
2022-12-14T07:37:07.774Z,24
2022-12-14T07:38:07.837Z,28
2022-12-14T07:39:10.549Z,24
2022-12-14T07:40:07.798Z,20
2022-12-14T07:41:08.237Z,20
2022-12-14T07:42:07.796Z,20
2022-12-14T07:43:07.797Z,20
2022-12-14T07:44:10.090Z,20
2022-12-14T07:45:07.830Z,20
2022-12-14T07:46:08.306Z,20
2022-12-14T07:47:08.544Z,20
2022-12-14T07:48:07.784Z,20
2022-12-14T07:49:08.052Z,24
2022-12-14T07:50:10.695Z,24
2022-12-14T07:51:08.210Z,24
2022-12-14T07:52:07.807Z,24
2022-12-14T07:53:07.806Z,28
2022-12-14T07:54:07.823Z,32
2022-12-14T07:55:09.199Z,32
2022-12-14T07:56:08.211Z,40
2022-12-14T07:57:07.876Z,36
2022-12-14T07:58:07.869Z,36
2022-12-14T07:59:07.815Z,32
2022-12-14T08:00:07.857Z,36
2022-12-14T08:01:10.914Z,44
2022-12-14T08:02:08.502Z,48
2022-12-14T08:03:07.826Z,52
2022-12-14T08:04:08.041Z,60
2022-12-14T08:05:17.906Z,60
2022-12-14T08:06:10.719Z,60
2022-12-14T08:07:07.821Z,52
2022-12-14T08:08:07.841Z,52
2022-12-14T08:09:07.854Z,44
2022-12-14T08:10:07.914Z,40
2022-12-14T08:11:11.072Z,40
2022-12-14T08:12:07.816Z,44
2022-12-14T08:13:07.969Z,48
2022-12-14T08:14:07.842Z,52
2022-12-14T08:15:07.899Z,60
2022-12-14T08:16:08.563Z,72
2022-12-14T08:17:10.624Z,76
2022-12-14T08:18:07.829Z,76
2022-12-14T08:19:07.889Z,76
2022-12-14T08:20:07.844Z,72
2022-12-14T08:21:08.181Z,76
2022-12-14T08:22:07.906Z,72
2022-12-14T08:23:07.852Z,76
2022-12-14T08:24:07.841Z,80
2022-12-14T08:25:07.865Z,84
2022-12-14T08:26:08.173Z,92
2022-12-14T08:27:07.967Z,108
2022-12-14T08:28:10.738Z,116
2022-12-14T08:29:07.896Z,120
2022-12-14T08:30:07.865Z,116
2022-12-14T08:31:08.637Z,108
2022-12-14T08:32:07.876Z,108
2022-12-14T08:33:07.878Z,108
2022-12-14T08:34:07.962Z,112
2022-12-14T08:35:07.904Z,120
2022-12-14T08:36:08.221Z,128
2022-12-14T08:37:07.907Z,128
2022-12-14T08:38:10.594Z,128
2022-12-14T08:39:10.701Z,132
2022-12-14T08:40:07.929Z,128
2022-12-14T08:41:08.190Z,128
2022-12-14T08:42:07.910Z,124
2022-12-14T08:43:07.900Z,124
2022-12-14T08:44:07.988Z,120
2022-12-14T08:45:07.918Z,120
2022-12-14T08:46:07.900Z,128
2022-12-14T08:47:08.324Z,136
2022-12-14T08:48:07.916Z,148
2022-12-14T08:49:07.902Z,156
2022-12-14T08:50:10.938Z,164
2022-12-14T08:51:07.967Z,180
2022-12-14T08:52:07.908Z,188
2022-12-14T08:53:07.981Z,208
2022-12-14T08:54:07.927Z,236
2022-12-14T08:55:11.012Z,276
2022-12-14T08:56:07.916Z,304
2022-12-14T08:57:07.921Z,312
2022-12-14T08:58:07.913Z,284
2022-12-14T08:59:07.929Z,248
2022-12-14T09:00:09.351Z,212
2022-12-14T09:01:11.417Z,188
2022-12-14T09:02:08.648Z,168
2022-12-14T09:03:08.567Z,160
2022-12-14T09:04:08.474Z,156
2022-12-14T09:05:07.924Z,152
2022-12-14T09:06:09.529Z,152
2022-12-14T09:07:07.933Z,148
2022-12-14T09:08:07.921Z,132
2022-12-14T09:09:16.243Z,104
2022-12-14T09:10:07.950Z,80
2022-12-14T09:11:07.963Z,64
2022-12-14T09:12:10.973Z,64
2022-12-14T09:13:07.946Z,68
2022-12-14T09:14:07.962Z,72
2022-12-14T09:15:07.934Z,80
2022-12-14T09:16:08.369Z,92
2022-12-14T09:17:10.986Z,112
2022-12-14T09:18:07.915Z,124
2022-12-14T09:19:07.945Z,136
2022-12-14T09:20:07.947Z,140
2022-12-14T09:21:07.992Z,136
2022-12-14T09:22:08.294Z,128
2022-12-14T09:23:07.979Z,120
2022-12-14T09:24:07.930Z,124
2022-12-14T09:25:07.971Z,132
2022-12-14T09:26:08.025Z,140
2022-12-14T09:27:07.948Z,140
2022-12-14T09:28:11.039Z,140
2022-12-14T09:29:07.966Z,136
2022-12-14T09:30:07.963Z,132
2022-12-14T09:31:08.025Z,124
2022-12-14T09:32:08.257Z,120
2022-12-14T09:33:07.975Z,124
2022-12-14T09:34:07.988Z,120
2022-12-14T09:35:07.978Z,120
2022-12-14T09:36:07.999Z,116
2022-12-14T09:37:07.968Z,112
2022-12-14T09:38:08.003Z,108
2022-12-14T09:39:07.984Z,108
2022-12-14T09:40:08.003Z,112
2022-12-14T09:41:11.851Z,104
2022-12-14T09:42:08.347Z,96
2022-12-14T09:43:07.969Z,88
2022-12-14T09:44:19.114Z,76
2022-12-14T09:45:08.006Z,68
2022-12-14T09:46:08.282Z,60
2022-12-14T09:47:08.007Z,52
2022-12-14T09:48:07.992Z,44
2022-12-14T09:49:07.990Z,40
2022-12-14T09:50:07.999Z,40
2022-12-14T09:51:08.375Z,36
2022-12-14T09:52:07.984Z,32
2022-12-14T09:53:07.994Z,32
2022-12-14T09:54:09.778Z,32
2022-12-14T09:55:11.054Z,32
2022-12-14T09:56:08.013Z,32
2022-12-14T09:57:08.015Z,32
2022-12-14T09:58:07.998Z,32
2022-12-14T09:59:08.015Z,32
2022-12-14T10:00:10.990Z,32
2022-12-14T10:01:08.318Z,28
2022-12-14T10:02:39.241Z,32
2022-12-14T10:03:14.147Z,32
2022-12-14T10:04:08.727Z,40
2022-12-14T10:05:08.041Z,48
2022-12-14T10:06:11.135Z,52
2022-12-14T10:07:08.022Z,56
2022-12-14T10:08:08.027Z,60
2022-12-14T10:09:08.037Z,68
2022-12-14T10:10:08.035Z,72
2022-12-14T10:11:11.093Z,76
2022-12-14T10:12:08.043Z,88
2022-12-14T10:13:08.037Z,92
2022-12-14T10:14:08.061Z,100
2022-12-14T10:15:08.070Z,108
2022-12-14T10:16:08.401Z,112
2022-12-14T10:17:11.372Z,132
2022-12-14T10:18:14.126Z,148
2022-12-14T10:19:11.591Z,172
2022-12-14T10:20:08.054Z,196
2022-12-14T10:21:08.101Z,228
2022-12-14T10:22:10.966Z,264
2022-12-14T10:23:08.173Z,296
2022-12-14T10:24:08.048Z,316
2022-12-14T10:25:08.063Z,332
2022-12-14T10:26:08.077Z,344
2022-12-14T10:27:08.059Z,364
2022-12-14T10:28:18.077Z,416
2022-12-14T10:29:08.792Z,452
2022-12-14T10:30:08.079Z,476
2022-12-14T10:31:08.129Z,496
2022-12-14T10:32:08.516Z,496
2022-12-14T10:33:11.151Z,484
2022-12-14T10:34:17.420Z,472
2022-12-14T10:35:08.068Z,468
2022-12-14T10:36:08.098Z,488
2022-12-14T10:37:08.087Z,520
2022-12-14T10:38:08.064Z,552
2022-12-14T10:39:17.266Z,548
2022-12-14T10:40:36.115Z,524
2022-12-14T10:41:08.107Z,516
2022-12-14T10:42:08.068Z,512
2022-12-14T10:43:08.149Z,520
2022-12-14T10:44:14.190Z,544
2022-12-14T10:45:47.635Z,560
2022-12-14T10:46:17.046Z,560
2022-12-14T10:47:08.358Z,556
2022-12-14T10:48:08.096Z,560
2022-12-14T10:49:08.162Z,560
2022-12-14T10:50:08.090Z,548
2022-12-14T10:51:08.079Z,544
2022-12-14T10:52:08.114Z,540
2022-12-14T10:53:08.098Z,528
2022-12-14T10:54:08.133Z,508
2022-12-14T10:55:11.206Z,488
2022-12-14T10:56:08.474Z,464
2022-12-14T10:57:08.456Z,448
2022-12-14T10:58:08.202Z,448
2022-12-14T10:59:08.082Z,472
2022-12-14T11:00:25.753Z,524
2022-12-14T11:01:08.379Z,544
2022-12-14T11:02:09.453Z,560
2022-12-14T11:03:08.822Z,548
2022-12-14T11:04:08.163Z,504
2022-12-14T11:05:08.105Z,500
2022-12-14T11:06:10.972Z,572
2022-12-14T11:07:08.132Z,708
2022-12-14T11:08:08.127Z,808
2022-12-14T11:09:08.117Z,772
2022-12-14T11:10:08.125Z,656
2022-12-14T11:11:08.168Z,580
2022-12-14T11:12:08.633Z,564
2022-12-14T11:13:08.122Z,536
2022-12-14T11:14:08.118Z,488
2022-12-14T11:15:08.123Z,456
2022-12-14T11:16:08.174Z,428
2022-12-14T11:17:17.700Z,380
2022-12-14T11:18:09.013Z,348
2022-12-14T11:19:08.164Z,324
2022-12-14T11:20:08.142Z,304
2022-12-14T11:21:08.190Z,288
2022-12-14T11:22:08.619Z,268
2022-12-14T11:23:08.138Z,252
2022-12-14T11:24:08.131Z,240
2022-12-14T11:25:08.150Z,232
2022-12-14T11:26:08.135Z,232
2022-12-14T11:27:08.198Z,232
2022-12-14T11:28:11.290Z,228
2022-12-14T11:29:08.204Z,224
2022-12-14T11:30:08.185Z,224
2022-12-14T11:31:08.674Z,232
2022-12-14T11:32:08.169Z,248
2022-12-14T11:33:10.968Z,280
2022-12-14T11:34:08.180Z,316
2022-12-14T11:35:08.222Z,340
2022-12-14T11:36:08.156Z,340
2022-12-14T11:37:08.182Z,340
2022-12-14T11:38:08.165Z,372
2022-12-14T11:39:11.269Z,388
2022-12-14T11:40:08.162Z,404
2022-12-14T11:41:16.725Z,476
2022-12-14T11:42:08.208Z,516
2022-12-14T11:43:08.234Z,524
2022-12-14T11:44:11.018Z,500
2022-12-14T11:45:08.171Z,468
2022-12-14T11:46:08.483Z,444
2022-12-14T11:47:08.199Z,448
2022-12-14T11:48:08.235Z,464
2022-12-14T11:49:08.233Z,484
2022-12-14T11:50:08.156Z,500
2022-12-14T11:51:08.194Z,500
2022-12-14T11:52:08.236Z,504
2022-12-14T11:53:16.287Z,484
2022-12-14T11:54:08.184Z,468
2022-12-14T11:55:11.183Z,468
2022-12-14T11:56:08.173Z,460
2022-12-14T11:57:08.214Z,432
2022-12-14T11:58:08.162Z,416
2022-12-14T11:59:08.169Z,392
2022-12-14T12:00:08.254Z,356
2022-12-14T12:01:08.205Z,344
2022-12-14T12:02:08.820Z,348
2022-12-14T12:03:08.611Z,364
2022-12-14T12:04:08.648Z,388
2022-12-14T12:05:08.209Z,416
2022-12-14T12:06:08.193Z,460
2022-12-14T12:07:11.427Z,504
2022-12-14T12:08:08.216Z,512
2022-12-14T12:09:08.205Z,496
2022-12-14T12:10:08.225Z,468
2022-12-14T12:11:12.382Z,464
2022-12-14T12:12:08.245Z,480
2022-12-14T12:13:08.217Z,484
2022-12-14T12:14:08.219Z,476
2022-12-14T12:15:08.486Z,472
2022-12-14T12:16:08.499Z,452
2022-12-14T12:17:08.274Z,444
2022-12-14T12:18:08.221Z,436
2022-12-14T12:19:17.022Z,428
2022-12-14T12:20:08.202Z,424
2022-12-14T12:21:08.219Z,412
2022-12-14T12:22:08.764Z,400
2022-12-14T12:23:08.214Z,388
2022-12-14T12:24:08.236Z,364
2022-12-14T12:25:43.132Z,320
2022-12-14T12:26:08.227Z,316
2022-12-14T12:27:11.140Z,320
2022-12-14T12:28:08.246Z,328
2022-12-14T12:29:08.307Z,340
2022-12-14T12:30:08.255Z,348
2022-12-14T12:31:15.702Z,348
2022-12-14T12:32:08.238Z,352
2022-12-14T12:33:10.982Z,364
2022-12-14T12:34:08.232Z,380
2022-12-14T12:35:18.078Z,396
2022-12-14T12:36:08.231Z,420
2022-12-14T12:37:38.293Z,472
2022-12-14T12:38:11.408Z,492
2022-12-14T12:39:08.288Z,500
2022-12-14T12:40:08.285Z,488
2022-12-14T12:41:08.402Z,472
2022-12-14T12:42:12.329Z,452
2022-12-14T12:43:08.325Z,440
2022-12-14T12:44:11.411Z,420
2022-12-14T12:45:08.267Z,408
2022-12-14T12:46:08.547Z,408
2022-12-14T12:47:49.861Z,424
2022-12-14T12:48:08.614Z,424
2022-12-14T12:49:11.295Z,436
2022-12-14T12:50:08.288Z,436
2022-12-14T12:51:09.273Z,436
2022-12-14T12:52:08.441Z,428
2022-12-14T12:53:11.064Z,424
2022-12-14T12:54:08.295Z,420
2022-12-14T12:55:11.390Z,408
2022-12-14T12:56:08.290Z,392
2022-12-14T12:57:08.300Z,376
2022-12-14T12:58:11.162Z,368
2022-12-14T12:59:08.294Z,392
2022-12-14T13:00:11.208Z,420
2022-12-14T13:01:08.135Z,448
2022-12-14T13:02:08.803Z,480
2022-12-14T13:03:08.985Z,512
2022-12-14T13:04:08.303Z,528
2022-12-14T13:05:59.262Z,504
2022-12-14T13:06:11.592Z,504
2022-12-14T13:07:08.736Z,488
2022-12-14T13:08:08.859Z,480
2022-12-14T13:09:08.982Z,468
2022-12-14T13:10:12.474Z,444
2022-12-14T13:11:38.793Z,404
2022-12-14T13:12:08.802Z,388
2022-12-14T13:13:08.804Z,384
2022-12-14T13:14:08.772Z,392
2022-12-14T13:15:08.845Z,400
2022-12-14T13:16:09.020Z,404
2022-12-14T13:17:11.799Z,392
2022-12-14T13:18:08.852Z,372
2022-12-14T13:20:03.025Z,352
2022-12-14T13:20:12.672Z,348
2022-12-14T13:21:12.524Z,340
2022-12-14T13:22:24.404Z,324
2022-12-14T13:23:49.850Z,292
2022-12-14T13:24:12.525Z,284
2022-12-14T13:25:12.364Z,268
2022-12-14T13:26:23.489Z,264
2022-12-14T13:27:20.465Z,276
2022-12-14T13:28:15.458Z,288
2022-12-14T13:29:12.526Z,296
2022-12-14T13:30:12.716Z,296
2022-12-14T13:31:12.655Z,292
2022-12-14T13:32:12.599Z,292
2022-12-14T13:33:13.669Z,312
2022-12-14T13:34:12.529Z,332
2022-12-14T13:35:12.537Z,340
2022-12-14T13:36:12.576Z,332
2022-12-14T13:37:12.607Z,324
2022-12-14T13:38:12.576Z,312
2022-12-14T13:39:15.425Z,300
2022-12-14T13:40:12.602Z,292
2022-12-14T13:41:12.234Z,280
2022-12-14T13:42:12.548Z,272
2022-12-14T13:43:12.616Z,272
2022-12-14T13:44:15.423Z,268
2022-12-14T13:45:12.558Z,264
2022-12-14T13:46:12.869Z,256
2022-12-14T13:47:12.572Z,244
2022-12-14T13:48:12.820Z,236
2022-12-14T13:49:12.558Z,228
2022-12-14T13:51:02.066Z,216
2022-12-14T13:51:12.575Z,212
2022-12-14T13:52:12.555Z,208
2022-12-14T13:53:12.609Z,208
2022-12-14T13:54:12.506Z,208
2022-12-14T13:55:15.616Z,208
2022-12-14T13:56:12.568Z,204
2022-12-14T13:57:12.655Z,200
2022-12-14T13:58:12.601Z,196
2022-12-14T13:59:12.600Z,184
2022-12-14T14:00:12.663Z,180
2022-12-14T14:01:12.712Z,176
2022-12-14T14:02:16.871Z,172
2022-12-14T14:03:13.320Z,168
2022-12-14T14:04:13.297Z,168
2022-12-14T14:05:12.441Z,164
2022-12-14T14:06:15.367Z,164
2022-12-14T14:07:12.627Z,164
2022-12-14T14:08:12.618Z,160
2022-12-14T14:09:12.600Z,160
2022-12-14T14:10:12.737Z,156
2022-12-14T14:11:46.696Z,160
2022-12-14T14:12:12.705Z,160
2022-12-14T14:13:12.624Z,164
2022-12-14T14:14:12.653Z,168
2022-12-14T14:15:12.467Z,172
2022-12-14T14:16:35.578Z,172
2022-12-14T14:17:12.587Z,172
2022-12-14T14:18:12.621Z,172
2022-12-14T14:19:12.442Z,164
2022-12-14T14:20:12.624Z,164